northanger (northanger) wrote,
northanger
northanger

Pocahontas & Icarus

columns left-right: cycle number, date (YYMMDD), longitude, speed, declination


 • Cycle #25: New Fast Mover
 • The Mass Psychology of Fascism
 • Asteroid #1566-ICARUS

Asteroid #4487-POCAHONTAS

01/01/01—050827 Pocahontas       5 sa 17' 1.1493   0.4182068    0°49'44.9112
01/02/02—050908 Pocahontas      10 sa 49'55.1696   0.5044252   -1°37'45.4191
01/03/03—050920 Pocahontas      17 sa 20'16.4870   0.5779887   -4° 2'42.9422
01/04/04—051003 Pocahontas      25 sa 19' 8.6707   0.6485000   -6°29'47.7982
01/05/05—051015 Pocahontas       3 cp 27' 2.2820   0.7051523   -8°29'29.5197
01/06/06—051027 Pocahontas      12 cp 12'54.8189   0.7546585  -10° 7' 8.8098
01/07/07—051108 Pocahontas      21 cp 34'15.5738   0.7978357  -11°16'42.5728
01/08/08—051120 Pocahontas       1 aq 21'34.9586   0.8324624  -11°52' 9.9283
01/09/09—051202 Pocahontas      11 aq 31'27.4890   0.8605327  -11°50'15.9622
01/10/10—051214 Pocahontas      21 aq 58'33.9737   0.8800049  -11° 9'44.2691
01/11/11—051227 Pocahontas       3 pi 30'29.0819   0.8930045   -9°44'50.1394
01/12/12—060108 Pocahontas      14 pi 15'37.1054   0.8976228   -7°53'45.0577
01/13/13—060120 Pocahontas      25 pi  1'20.3786   0.8951135   -5°38'56.4170
01/14/14—060201 Pocahontas       5 ar 43'26.7899   0.8874887   -3° 8'43.3573
01/15/15—060213 Pocahontas      16 ar 17'48.7327   0.8737073   -0°31'52.2183
01/16/16—060225 Pocahontas      26 ar 40'43.3610   0.8561085    2° 3'24.1161
01/17/17—060309 Pocahontas       6 ta 49'38.5801   0.8346280    4°30' 4.7296
01/18/18—060322 Pocahontas      17 ta 30'26.3235   0.8082700    6°52'18.6489
01/19/19—060403 Pocahontas      27 ta  1'19.4941   0.7827855    8°43'19.6611
01/20/20—060415 Pocahontas       6 ge 15'13.0405   0.7558399   10°12'24.6342
01/21/21—060427 Pocahontas      15 ge  9'57.0961   0.7296830   11°17'35.0429
01/22/22—060509 Pocahontas      23 ge 45'57.4295   0.7036690   11°58'15.0455
01/23/23—060521 Pocahontas       2 cn  3'37.5881   0.6790559   12°14'53.1634
01/24/24—060602 Pocahontas      10 cn  4'13.4280   0.6559790   12° 8'41.3443
01/25/25—060614 Pocahontas      17 cn 48'32.3787   0.6341265   11°41'22.8548
01/26/26—060627 Pocahontas      25 cn 54'43.2963   0.6127756   10°50'28.1980
01/27/27—060709 Pocahontas       3 le  9' 7.2769   0.5941715    9°46'10.4942
01/28/28—060721 Pocahontas      10 le 10'45.8205   0.5774422    8°27'46.5261
01/29/29—060802 Pocahontas      17 le  0'46.9299   0.5616280    6°57'29.5919
01/30/30—060814 Pocahontas      23 le 39'45.6936   0.5469386    5°17'40.6186
02/31/01—060826 Pocahontas       0 vi  8'37.5354   0.5332032    3°30'22.9437
02/32/02—060907 Pocahontas       6 vi 27'38.2135   0.5196327    1°37'42.7120
02/33/03—060919 Pocahontas      12 vi 37'10.1695   0.5067812   -0°18'22.9774
02/34/04—061002 Pocahontas      19 vi  6'49.2827   0.4921758   -2°25'51.8826
02/35/05—061014 Pocahontas      24 vi 56'15.7463   0.4784696   -4°23' 3.1454
02/36/06—061026 Pocahontas       0 li 35'27.4419   0.4634636   -6°17'59.0247
02/37/07—061107 Pocahontas       6 li  4'18.8899   0.4467587   -8° 9' 2.4580
02/38/08—061119 Pocahontas      11 li 19'23.9611   0.4279737   -9°53'39.4739
02/39/09—061201 Pocahontas      16 li 19'42.1178   0.4056258  -11°30' 8.9671
02/40/10—061213 Pocahontas      21 li  2'42.6334   0.3796533  -12°56'27.3387
02/41/11—061226 Pocahontas      25 li 45'44.1630   0.3446546  -14°15'51.1911
02/42/12—070107 Pocahontas      29 li 40'12.2686   0.3053105  -15°13'23.5993
02/43/13—070119 Pocahontas       3 sc  3' 3.1363   0.2561960  -15°52'59.8831
02/44/14—070131 Pocahontas       5 sc 46'16.7389   0.1952488  -16°11'11.5589
02/45/15—070212 Pocahontas       7 sc 40'45.6402   0.1200423  -16° 4' 9.5669
02/46/16—070224 Pocahontas       8 sc 34'57.7367   0.0279916  -15°27' 5.3928
02/47/17—070308 Pocahontas       8 sc 17'37.7983  -0.0783082  -14°15'12.0337
02/48/18—070320 Pocahontas       6 sc 40'31.7178  -0.1925025  -12°25'14.1385
02/49/19—070402 Pocahontas       3 sc 25'43.0613  -0.3020897   -9°43'46.3113
02/50/20—070414 Pocahontas      29 li 23' 9.5998  -0.3628925   -6°47'24.8376
02/51/21—070426 Pocahontas      24 li 58'46.9703  -0.3600733   -3°46'42.6401
02/52/22—070508 Pocahontas      20 li 59'29.7551  -0.2959971   -1° 7' 2.7053
02/53/23—070520 Pocahontas      18 li  2'12.0928  -0.1918495    0°53'19.8211
02/54/24—070601 Pocahontas      16 li 26' 3.3845  -0.0752802    2° 7'30.5408
02/55/25—070613 Pocahontas      16 li 12' 4.0723   0.0347901    2°38'23.9387
02/56/26—070626 Pocahontas      17 li 21' 0.0160   0.1387196    2°30'45.0822
02/57/27—070708 Pocahontas      19 li 30'16.1352   0.2180412    1°54' 8.4416
02/58/28—070720 Pocahontas      22 li 32' 6.7047   0.2850020    0°55'58.2018
02/59/29—070801 Pocahontas      26 li 17'56.7759   0.3406304   -0°17'59.6038
02/60/30—070813 Pocahontas       0 sc 40'58.2729   0.3889503   -1°43' 4.2383
03/61/01—070825 Pocahontas       5 sc 36'32.7364   0.4311129   -3°15'17.6725
03/62/02—070906 Pocahontas      11 sc  0'45.0341   0.4691318   -4°50'57.2751
03/63/03—070918 Pocahontas      16 sc 51'27.3879   0.5046155   -6°26'48.5070
03/64/04—071001 Pocahontas      23 sc 39' 6.2507   0.5405122   -8° 6'50.8451
03/65/05—071013 Pocahontas       0 sa 20' 2.8530   0.5731094   -9°32'10.9837
03/66/06—071025 Pocahontas       7 sa 24' 4.3945   0.6045851  -10°47' 6.1839  Return

071022 Pocahontas       5 sa 17' 1.1493   0.5953869  -10°26'21.8780  10:01:179097 UT

Asteroid #1566-ICARUS

01/01/01—050827 Icarus          15 sa 22'17.5661   0.1428762  -33°41'49.3761
01/02/02—050908 Icarus          17 sa 30'17.9336   0.2090167  -33°33'29.6593
01/03/03—050920 Icarus          20 sa 18'43.5830   0.2563320  -33°30' 3.2993
01/04/04—051003 Icarus          23 sa 54'36.4398   0.2956040  -33°27'47.7946
01/05/05—051015 Icarus          27 sa 38' 6.5011   0.3239992  -33°24' 7.6987
01/06/06—051027 Icarus           1 cp 40' 7.4971   0.3477477  -33°16'33.7292
01/07/07—051108 Icarus           5 cp 59' 9.5010   0.3687346  -33° 3'10.4092
01/08/08—051120 Icarus          10 cp 31'21.3126   0.3872492  -32°42'30.8697
01/09/09—051202 Icarus          15 cp 16'42.7827   0.4054004  -32°13'13.2554
01/10/10—051214 Icarus          20 cp 14'51.4035   0.4228404  -31°34'11.8722
01/11/11—051227 Icarus          25 cp 52'26.0445   0.4431623  -30°39'46.8932
01/12/12—060108 Icarus           1 aq 18'46.4195   0.4636131  -29°37'15.0470
01/13/13—060120 Icarus           7 aq  0'52.0098   0.4874291  -28°21'48.8660
01/14/14—060201 Icarus          13 aq  2' 1.3277   0.5166294  -26°51'54.0503
01/15/15—060213 Icarus          19 aq 26'35.8339   0.5532433  -25° 5'27.9265
01/16/16—060225 Icarus          26 aq 21'42.4667   0.6022649  -22°59' 7.8377
01/17/17—060309 Icarus           3 pi 57'54.0936   0.6685551  -20°27'40.9364
01/18/18—060322 Icarus          13 pi 17'10.3092   0.7724866  -17° 5'19.6531
01/19/19—060403 Icarus          23 pi 18'52.7371   0.9138443  -13° 8'39.8789
01/20/20—060415 Icarus           5 ar 28' 8.3058   1.1269962   -7°57'59.5132
01/21/21—060427 Icarus          20 ar 49'36.7882   1.4573461   -0°53'11.4713
01/22/22—060509 Icarus          11 ta 17'22.2047   2.0064862    9°16' 3.3580
01/23/23—060521 Icarus           9 ge 35'17.4113   2.2749843   24°27'49.2419
01/24/24—060602 Icarus          27 ge 59'44.1308   1.3591173   33°30'46.6986
01/25/25—060614 Icarus          20 cn 19' 6.4866   2.6372602   35°24'38.9297  New Fast Runner
01/26/26—060627 Icarus           8 vi 37'23.1887   4.2275740   18°28'35.5070
01/27/27—060709 Icarus          17 li 55'39.8711   2.2267789   -4°47'16.0238
01/28/28—060721 Icarus           6 sc 46'49.3122   1.1068464  -15°52'51.2451
01/29/29—060802 Icarus          17 sc 16' 7.6912   0.7046545  -21°13'16.3392
01/30/30—060814 Icarus          24 sc 36' 3.5057   0.5397880  -24°19'17.9930
02/31/01—060826 Icarus           0 sa 34'43.3146   0.4657711  -26°22'57.4564
02/32/02—060907 Icarus           5 sa 55'38.9818   0.4296417  -27°52'14.8974
02/33/03—060919 Icarus          10 sa 57'58.1702   0.4124979  -28°59'17.5910
02/34/04—061002 Icarus          16 sa 16'18.9859   0.4049108  -29°53'35.6133  Return
02/35/05—061014 Icarus          21 sa  6'51.5624   0.4029936  -30°29'43.6124
02/36/06—061026 Icarus          25 sa 57'29.1833   0.4046868  -30°53'50.3464
02/37/07—061107 Icarus           0 cp 50'49.2994   0.4076147  -31° 6'35.2023
02/38/08—061119 Icarus           5 cp 45'54.0030   0.4123259  -31° 8' 9.7667
02/39/09—061201 Icarus          10 cp 44'40.0428   0.4175667  -30°58'46.5381
02/40/10—061213 Icarus          15 cp 47'28.9227   0.4238057  -30°38'33.2744
02/41/11—061226 Icarus          21 cp 21' 6.5689   0.4316201  -30° 4'32.1820
02/42/12—070107 Icarus          26 cp 34'42.7331   0.4397660  -29°22'11.4548
02/43/13—070119 Icarus           1 aq 54'53.6983   0.4498676  -28°29'28.3280
02/44/14—070131 Icarus           7 aq 22'50.8827   0.4615674  -27°26'34.9389
02/45/15—070212 Icarus          13 aq  0'24.8949   0.4768630  -26°13'32.0036
02/46/16—070224 Icarus          18 aq 50'25.6073   0.4961942  -24°50' 4.3379
02/47/17—070308 Icarus          24 aq 56'29.4706   0.5221078  -23°15'37.0849
02/48/18—070320 Icarus           1 pi 23'10.7353   0.5574823  -21°29' 2.0591
02/49/19—070402 Icarus           8 pi 57'45.5054   0.6115876  -19°16'10.3640
02/50/20—070414 Icarus          16 pi 42'52.8429   0.6848129  -16°52'40.6702
02/51/21—070426 Icarus          25 pi 31'44.5178   0.7910459  -14° 1' 2.8252
02/52/22—070508 Icarus           5 ar 54'32.3521   0.9495177  -10°27'50.7498
02/53/23—070520 Icarus          18 ar 36'58.8120   1.1827362   -5°51'49.3417
02/54/24—070601 Icarus           4 ta 40'26.6412   1.5097329    0°16' 4.4825
02/55/25—070613 Icarus          25 ta 10'38.2715   1.9180371    8°21'25.8261
02/56/26—070626 Icarus          23 ge 41'56.5281   2.5556560   19° 1'11.2114
02/57/27—070708 Icarus          28 cn 39'18.5260   2.7197044   25°28'48.7418
02/58/28—070720 Icarus          28 le 51'52.5143   2.4445256   18°39' 0.9104
02/59/29—070801 Icarus          26 vi 44'55.3823   2.1315616    6°20'55.4840
02/60/30—070813 Icarus          19 li  2'49.5115   1.5832961   -4°57'53.6745
03/61/01—070825 Icarus           5 sc 14'44.9894   1.1461902  -12°59' 9.6752
03/62/02—070906 Icarus          17 sc 13'21.3826   0.8734669  -18°20'44.7192
03/63/03—070918 Icarus          26 sc 38'47.6157   0.7108957  -21°59'32.7350
03/64/04—071001 Icarus           5 sa  8'28.1247   0.6052469  -24°43'15.8903
03/65/05—071013 Icarus          12 sa  1'19.2593   0.5460732  -26°29'21.4375
03/66/06—071025 Icarus          18 sa 19'39.3996   0.5074693  -27°44'31.8901
071020 Icarus          15 sa 22'17.5661   0.5239833  -27°11'56.3867  05:05:088180 UT
Tags: icarus, pocahontas
Subscribe
  • Post a new comment

    Error

    Anonymous comments are disabled in this journal

    default userpic

    Your reply will be screened

  • 0 comments